sensor_id;sensor_type;location;lat;lon;timestamp;temperature;humidity
76787;DHT22;65739;51.482;5.702;2023-04-10T00:00:05;8.90;99.90
76787;DHT22;65739;51.482;5.702;2023-04-10T00:02:31;9.00;99.90
76787;DHT22;65739;51.482;5.702;2023-04-10T00:04:58;9.00;99.90
76787;DHT22;65739;51.482;5.702;2023-04-10T00:07:23;8.90;99.90
76787;DHT22;65739;51.482;5.702;2023-04-10T00:09:49;9.00;99.90
76787;DHT22;65739;51.482;5.702;2023-04-10T00:12:15;8.90;99.90
76787;DHT22;65739;51.482;5.702;2023-04-10T00:14:41;8.80;99.90
76787;DHT22;65739;51.482;5.702;2023-04-10T00:17:06;8.80;99.90
76787;DHT22;65739;51.482;5.702;2023-04-10T00:19:32;8.80;99.90
76787;DHT22;65739;51.482;5.702;2023-04-10T00:21:58;8.80;99.90
76787;DHT22;65739;51.482;5.702;2023-04-10T00:24:23;8.80;99.90
76787;DHT22;65739;51.482;5.702;2023-04-10T00:26:49;8.80;99.90
76787;DHT22;65739;51.482;5.702;2023-04-10T00:29:14;8.80;99.90
76787;DHT22;65739;51.482;5.702;2023-04-10T00:31:40;8.70;99.90
76787;DHT22;65739;51.482;5.702;2023-04-10T00:34:05;8.80;99.90
76787;DHT22;65739;51.482;5.702;2023-04-10T00:36:31;8.80;99.90
76787;DHT22;65739;51.482;5.702;2023-04-10T00:38:57;8.80;99.90
76787;DHT22;65739;51.482;5.702;2023-04-10T00:41:24;8.70;99.90
76787;DHT22;65739;51.482;5.702;2023-04-10T00:43:53;8.70;99.90
76787;DHT22;65739;51.482;5.702;2023-04-10T00:46:20;8.60;99.90
76787;DHT22;65739;51.482;5.702;2023-04-10T00:48:45;8.50;99.90
76787;DHT22;65739;51.482;5.702;2023-04-10T00:51:11;8.40;99.90
76787;DHT22;65739;51.482;5.702;2023-04-10T00:53:37;8.40;99.90
76787;DHT22;65739;51.482;5.702;2023-04-10T00:56:02;8.40;99.90
76787;DHT22;65739;51.482;5.702;2023-04-10T00:58:28;8.40;99.90
76787;DHT22;65739;51.482;5.702;2023-04-10T01:00:54;8.40;99.90
76787;DHT22;65739;51.482;5.702;2023-04-10T01:03:20;8.30;99.90
76787;DHT22;65739;51.482;5.702;2023-04-10T01:06:00;8.30;99.90
76787;DHT22;65739;51.482;5.702;2023-04-10T01:11:52;8.20;99.90
76787;DHT22;65739;51.482;5.702;2023-04-10T01:14:30;8.20;99.90
76787;DHT22;65739;51.482;5.702;2023-04-10T01:17:09;8.10;99.90
76787;DHT22;65739;51.482;5.702;2023-04-10T01:19:58;8.10;99.90
76787;DHT22;65739;51.482;5.702;2023-04-10T01:22:34;7.90;99.90
76787;DHT22;65739;51.482;5.702;2023-04-10T01:25:29;7.80;99.90
76787;DHT22;65739;51.482;5.702;2023-04-10T01:30:45;7.80;99.90
76787;DHT22;65739;51.482;5.702;2023-04-10T01:33:12;7.80;99.90
76787;DHT22;65739;51.482;5.702;2023-04-10T01:35:42;7.70;99.90
76787;DHT22;65739;51.482;5.702;2023-04-10T01:38:08;7.70;99.90
76787;DHT22;65739;51.482;5.702;2023-04-10T01:40:38;7.70;99.90
76787;DHT22;65739;51.482;5.702;2023-04-10T01:43:05;7.60;99.90
76787;DHT22;65739;51.482;5.702;2023-04-10T01:45:32;7.60;99.90
76787;DHT22;65739;51.482;5.702;2023-04-10T01:47:58;7.60;99.90
76787;DHT22;65739;51.482;5.702;2023-04-10T01:50:25;7.50;99.90
76787;DHT22;65739;51.482;5.702;2023-04-10T01:52:52;7.50;99.90
76787;DHT22;65739;51.482;5.702;2023-04-10T01:55:19;7.50;99.90
76787;DHT22;65739;51.482;5.702;2023-04-10T01:57:46;7.50;99.90
76787;DHT22;65739;51.482;5.702;2023-04-10T02:00:14;7.50;99.90
76787;DHT22;65739;51.482;5.702;2023-04-10T02:02:41;7.50;99.90
76787;DHT22;65739;51.482;5.702;2023-04-10T02:05:07;7.50;99.90
76787;DHT22;65739;51.482;5.702;2023-04-10T02:10:08;7.40;99.90
76787;DHT22;65739;51.482;5.702;2023-04-10T02:12:44;7.40;99.90
76787;DHT22;65739;51.482;5.702;2023-04-10T02:15:11;7.40;99.90
76787;DHT22;65739;51.482;5.702;2023-04-10T02:17:38;7.40;99.90
76787;DHT22;65739;51.482;5.702;2023-04-10T02:20:05;7.40;99.90
76787;DHT22;65739;51.482;5.702;2023-04-10T02:22:32;7.40;99.90
76787;DHT22;65739;51.482;5.702;2023-04-10T02:24:58;7.40;99.90
76787;DHT22;65739;51.482;5.702;2023-04-10T02:27:32;7.40;99.90
76787;DHT22;65739;51.482;5.702;2023-04-10T02:29:59;7.40;99.90
76787;DHT22;65739;51.482;5.702;2023-04-10T02:32:25;7.40;99.90
76787;DHT22;65739;51.482;5.702;2023-04-10T02:34:51;7.40;99.90
76787;DHT22;65739;51.482;5.702;2023-04-10T02:37:17;7.50;99.90
76787;DHT22;65739;51.482;5.702;2023-04-10T02:39:42;7.50;99.90
76787;DHT22;65739;51.482;5.702;2023-04-10T02:42:08;7.50;99.90
76787;DHT22;65739;51.482;5.702;2023-04-10T02:44:33;7.50;99.90
76787;DHT22;65739;51.482;5.702;2023-04-10T02:46:59;7.50;99.90
76787;DHT22;65739;51.482;5.702;2023-04-10T02:49:24;7.50;99.90
76787;DHT22;65739;51.482;5.702;2023-04-10T02:51:50;7.50;99.90
76787;DHT22;65739;51.482;5.702;2023-04-10T02:54:15;7.50;99.90
76787;DHT22;65739;51.482;5.702;2023-04-10T02:56:41;7.50;99.90
76787;DHT22;65739;51.482;5.702;2023-04-10T02:59:06;7.50;99.90
76787;DHT22;65739;51.482;5.702;2023-04-10T03:01:32;7.40;99.90
76787;DHT22;65739;51.482;5.702;2023-04-10T03:03:58;7.40;99.90
76787;DHT22;65739;51.482;5.702;2023-04-10T03:06:23;7.40;99.90
76787;DHT22;65739;51.482;5.702;2023-04-10T03:08:52;7.40;99.90
76787;DHT22;65739;51.482;5.702;2023-04-10T03:11:17;7.40;99.90
76787;DHT22;65739;51.482;5.702;2023-04-10T03:13:43;7.40;99.90
76787;DHT22;65739;51.482;5.702;2023-04-10T03:16:08;7.40;99.90
76787;DHT22;65739;51.482;5.702;2023-04-10T03:18:34;7.30;99.90
76787;DHT22;65739;51.482;5.702;2023-04-10T03:21:00;7.30;99.90
76787;DHT22;65739;51.482;5.702;2023-04-10T03:23:26;7.30;99.90
76787;DHT22;65739;51.482;5.702;2023-04-10T03:25:52;7.20;99.90
76787;DHT22;65739;51.482;5.702;2023-04-10T03:28:19;7.20;99.90
76787;DHT22;65739;51.482;5.702;2023-04-10T03:30:45;7.20;99.90
76787;DHT22;65739;51.482;5.702;2023-04-10T03:33:10;7.10;99.90
76787;DHT22;65739;51.482;5.702;2023-04-10T03:35:36;7.00;99.90
76787;DHT22;65739;51.482;5.702;2023-04-10T03:38:01;6.90;99.90
76787;DHT22;65739;51.482;5.702;2023-04-10T03:40:27;6.90;99.90
76787;DHT22;65739;51.482;5.702;2023-04-10T03:42:52;6.80;99.90
76787;DHT22;65739;51.482;5.702;2023-04-10T03:45:18;6.80;99.90
76787;DHT22;65739;51.482;5.702;2023-04-10T03:47:43;6.70;99.90
76787;DHT22;65739;51.482;5.702;2023-04-10T03:50:09;6.70;99.90
76787;DHT22;65739;51.482;5.702;2023-04-10T03:52:35;6.70;99.90
76787;DHT22;65739;51.482;5.702;2023-04-10T03:55:00;6.60;99.90
76787;DHT22;65739;51.482;5.702;2023-04-10T03:57:26;6.60;99.90
76787;DHT22;65739;51.482;5.702;2023-04-10T03:59:51;6.60;99.90
76787;DHT22;65739;51.482;5.702;2023-04-10T04:02:17;6.50;99.90
76787;DHT22;65739;51.482;5.702;2023-04-10T04:04:42;6.50;99.90
76787;DHT22;65739;51.482;5.702;2023-04-10T04:07:08;6.50;99.90
76787;DHT22;65739;51.482;5.702;2023-04-10T04:09:34;6.50;99.90
76787;DHT22;65739;51.482;5.702;2023-04-10T04:12:00;6.40;99.90
76787;DHT22;65739;51.482;5.702;2023-04-10T04:14:25;6.40;99.90
76787;DHT22;65739;51.482;5.702;2023-04-10T04:16:51;6.40;99.90
76787;DHT22;65739;51.482;5.702;2023-04-10T04:19:16;6.40;99.90
76787;DHT22;65739;51.482;5.702;2023-04-10T04:21:42;6.40;99.90
76787;DHT22;65739;51.482;5.702;2023-04-10T04:24:07;6.40;99.90
76787;DHT22;65739;51.482;5.702;2023-04-10T04:26:33;6.40;99.90
76787;DHT22;65739;51.482;5.702;2023-04-10T04:28:58;6.40;99.90
76787;DHT22;65739;51.482;5.702;2023-04-10T04:31:24;6.40;99.90
76787;DHT22;65739;51.482;5.702;2023-04-10T04:33:54;6.30;99.90
76787;DHT22;65739;51.482;5.702;2023-04-10T04:36:19;6.40;99.90
76787;DHT22;65739;51.482;5.702;2023-04-10T04:38:45;6.40;99.90
76787;DHT22;65739;51.482;5.702;2023-04-10T04:41:10;6.40;99.90
76787;DHT22;65739;51.482;5.702;2023-04-10T04:43:36;6.40;99.90
76787;DHT22;65739;51.482;5.702;2023-04-10T04:46:02;6.40;99.90
76787;DHT22;65739;51.482;5.702;2023-04-10T04:48:27;6.50;99.90
76787;DHT22;65739;51.482;5.702;2023-04-10T04:50:53;6.50;99.90
76787;DHT22;65739;51.482;5.702;2023-04-10T04:53:18;6.50;99.90
76787;DHT22;65739;51.482;5.702;2023-04-10T04:55:43;6.50;99.90
76787;DHT22;65739;51.482;5.702;2023-04-10T04:58:09;6.60;99.90
76787;DHT22;65739;51.482;5.702;2023-04-10T05:00:35;6.60;99.90
76787;DHT22;65739;51.482;5.702;2023-04-10T05:03:00;6.60;99.90
76787;DHT22;65739;51.482;5.702;2023-04-10T05:05:26;6.70;99.90
76787;DHT22;65739;51.482;5.702;2023-04-10T05:07:51;6.60;99.90
76787;DHT22;65739;51.482;5.702;2023-04-10T05:10:17;6.70;99.90
76787;DHT22;65739;51.482;5.702;2023-04-10T05:12:42;6.70;99.90
76787;DHT22;65739;51.482;5.702;2023-04-10T05:15:08;6.80;99.90
76787;DHT22;65739;51.482;5.702;2023-04-10T05:17:34;6.80;99.90
76787;DHT22;65739;51.482;5.702;2023-04-10T05:20:00;6.80;99.90
76787;DHT22;65739;51.482;5.702;2023-04-10T05:22:26;6.90;99.90
76787;DHT22;65739;51.482;5.702;2023-04-10T05:24:52;6.90;99.90
76787;DHT22;65739;51.482;5.702;2023-04-10T05:27:20;6.90;99.90
76787;DHT22;65739;51.482;5.702;2023-04-10T05:29:46;7.00;99.90
76787;DHT22;65739;51.482;5.702;2023-04-10T05:32:12;7.10;99.90
76787;DHT22;65739;51.482;5.702;2023-04-10T05:34:38;7.10;99.90
76787;DHT22;65739;51.482;5.702;2023-04-10T05:37:03;7.20;99.90
76787;DHT22;65739;51.482;5.702;2023-04-10T05:39:29;7.30;99.90
76787;DHT22;65739;51.482;5.702;2023-04-10T05:41:54;7.40;99.90
76787;DHT22;65739;51.482;5.702;2023-04-10T05:44:20;7.50;99.90
76787;DHT22;65739;51.482;5.702;2023-04-10T05:46:46;7.60;99.90
76787;DHT22;65739;51.482;5.702;2023-04-10T05:49:11;7.80;99.90
76787;DHT22;65739;51.482;5.702;2023-04-10T05:51:37;7.90;99.90
76787;DHT22;65739;51.482;5.702;2023-04-10T05:54:03;8.00;99.90
76787;DHT22;65739;51.482;5.702;2023-04-10T05:56:28;8.10;99.90
76787;DHT22;65739;51.482;5.702;2023-04-10T05:58:54;8.20;99.90
76787;DHT22;65739;51.482;5.702;2023-04-10T06:01:19;8.30;99.90
76787;DHT22;65739;51.482;5.702;2023-04-10T06:03:45;8.40;99.90
76787;DHT22;65739;51.482;5.702;2023-04-10T06:06:11;8.50;99.90
76787;DHT22;65739;51.482;5.702;2023-04-10T06:08:36;8.50;99.90
76787;DHT22;65739;51.482;5.702;2023-04-10T06:11:02;8.60;99.90
76787;DHT22;65739;51.482;5.702;2023-04-10T06:13:28;8.70;99.90
76787;DHT22;65739;51.482;5.702;2023-04-10T06:15:53;8.80;99.90
76787;DHT22;65739;51.482;5.702;2023-04-10T06:18:19;8.90;99.90
76787;DHT22;65739;51.482;5.702;2023-04-10T06:20:44;9.00;99.90
76787;DHT22;65739;51.482;5.702;2023-04-10T06:23:11;9.00;99.90
76787;DHT22;65739;51.482;5.702;2023-04-10T06:25:38;9.00;99.90
76787;DHT22;65739;51.482;5.702;2023-04-10T06:28:04;9.20;99.90
76787;DHT22;65739;51.482;5.702;2023-04-10T06:30:29;9.30;99.90
76787;DHT22;65739;51.482;5.702;2023-04-10T06:32:55;9.40;99.90
76787;DHT22;65739;51.482;5.702;2023-04-10T06:35:21;9.60;99.90
76787;DHT22;65739;51.482;5.702;2023-04-10T06:37:47;9.70;99.90
76787;DHT22;65739;51.482;5.702;2023-04-10T06:40:13;9.70;99.90
76787;DHT22;65739;51.482;5.702;2023-04-10T06:42:39;9.90;99.90
76787;DHT22;65739;51.482;5.702;2023-04-10T06:45:06;10.10;99.90
76787;DHT22;65739;51.482;5.702;2023-04-10T06:47:32;10.20;99.90
76787;DHT22;65739;51.482;5.702;2023-04-10T06:49:57;10.30;99.90
76787;DHT22;65739;51.482;5.702;2023-04-10T06:52:23;10.30;99.90
76787;DHT22;65739;51.482;5.702;2023-04-10T06:54:48;10.30;99.90
76787;DHT22;65739;51.482;5.702;2023-04-10T06:57:14;10.50;99.90
76787;DHT22;65739;51.482;5.702;2023-04-10T06:59:40;10.50;99.90
76787;DHT22;65739;51.482;5.702;2023-04-10T07:02:06;10.80;99.90
76787;DHT22;65739;51.482;5.702;2023-04-10T07:04:32;10.80;99.90
76787;DHT22;65739;51.482;5.702;2023-04-10T07:06:58;10.90;99.90
76787;DHT22;65739;51.482;5.702;2023-04-10T07:09:27;10.90;99.90
76787;DHT22;65739;51.482;5.702;2023-04-10T07:11:53;11.00;99.90
76787;DHT22;65739;51.482;5.702;2023-04-10T07:14:18;11.10;99.90
76787;DHT22;65739;51.482;5.702;2023-04-10T07:16:44;11.10;99.90
76787;DHT22;65739;51.482;5.702;2023-04-10T07:19:10;11.20;99.90
76787;DHT22;65739;51.482;5.702;2023-04-10T07:21:35;11.10;99.90
76787;DHT22;65739;51.482;5.702;2023-04-10T07:24:01;11.20;99.90
76787;DHT22;65739;51.482;5.702;2023-04-10T07:26:27;11.30;99.90
76787;DHT22;65739;51.482;5.702;2023-04-10T07:28:52;11.40;99.90
76787;DHT22;65739;51.482;5.702;2023-04-10T07:31:18;11.40;99.90
76787;DHT22;65739;51.482;5.702;2023-04-10T07:33:46;11.60;99.90
76787;DHT22;65739;51.482;5.702;2023-04-10T07:36:12;11.60;99.90
76787;DHT22;65739;51.482;5.702;2023-04-10T07:38:38;11.50;99.90
76787;DHT22;65739;51.482;5.702;2023-04-10T07:41:04;11.70;99.90
76787;DHT22;65739;51.482;5.702;2023-04-10T07:43:30;11.70;99.90
76787;DHT22;65739;51.482;5.702;2023-04-10T07:45:56;11.70;99.90
76787;DHT22;65739;51.482;5.702;2023-04-10T07:48:21;11.70;99.90
76787;DHT22;65739;51.482;5.702;2023-04-10T07:50:47;11.90;99.90
76787;DHT22;65739;51.482;5.702;2023-04-10T07:53:13;12.00;99.90
76787;DHT22;65739;51.482;5.702;2023-04-10T07:55:40;12.00;99.90
76787;DHT22;65739;51.482;5.702;2023-04-10T07:58:06;11.90;99.90
76787;DHT22;65739;51.482;5.702;2023-04-10T08:00:32;12.10;99.90
76787;DHT22;65739;51.482;5.702;2023-04-10T08:02:58;12.20;99.90
76787;DHT22;65739;51.482;5.702;2023-04-10T08:05:24;12.30;99.90
76787;DHT22;65739;51.482;5.702;2023-04-10T08:07:49;12.50;99.90
76787;DHT22;65739;51.482;5.702;2023-04-10T08:10:15;12.60;99.90
76787;DHT22;65739;51.482;5.702;2023-04-10T08:12:40;12.90;99.90
76787;DHT22;65739;51.482;5.702;2023-04-10T08:15:06;13.10;99.90
76787;DHT22;65739;51.482;5.702;2023-04-10T08:17:32;13.20;99.90
76787;DHT22;65739;51.482;5.702;2023-04-10T08:19:57;13.60;99.90
76787;DHT22;65739;51.482;5.702;2023-04-10T08:22:23;13.80;99.90
76787;DHT22;65739;51.482;5.702;2023-04-10T08:24:48;14.00;99.90
76787;DHT22;65739;51.482;5.702;2023-04-10T08:27:14;14.20;99.90
76787;DHT22;65739;51.482;5.702;2023-04-10T08:29:41;14.10;99.90
76787;DHT22;65739;51.482;5.702;2023-04-10T08:32:07;14.00;99.90
76787;DHT22;65739;51.482;5.702;2023-04-10T08:34:32;13.90;99.90
76787;DHT22;65739;51.482;5.702;2023-04-10T08:36:58;13.90;99.90
76787;DHT22;65739;51.482;5.702;2023-04-10T08:39:23;13.90;99.90
76787;DHT22;65739;51.482;5.702;2023-04-10T08:41:49;14.00;99.90
76787;DHT22;65739;51.482;5.702;2023-04-10T08:44:15;14.10;99.90
76787;DHT22;65739;51.482;5.702;2023-04-10T08:46:43;14.00;99.90
76787;DHT22;65739;51.482;5.702;2023-04-10T08:49:19;13.80;99.90
76787;DHT22;65739;51.482;5.702;2023-04-10T08:51:52;14.00;99.90
76787;DHT22;65739;51.482;5.702;2023-04-10T08:54:20;14.20;99.90
76787;DHT22;65739;51.482;5.702;2023-04-10T08:56:49;14.40;99.90
76787;DHT22;65739;51.482;5.702;2023-04-10T08:59:16;14.30;99.90
76787;DHT22;65739;51.482;5.702;2023-04-10T09:01:41;14.30;99.90
76787;DHT22;65739;51.482;5.702;2023-04-10T09:04:10;14.50;99.90
76787;DHT22;65739;51.482;5.702;2023-04-10T09:06:36;14.80;99.90
76787;DHT22;65739;51.482;5.702;2023-04-10T09:09:01;14.80;99.90
76787;DHT22;65739;51.482;5.702;2023-04-10T09:11:57;14.80;99.90
76787;DHT22;65739;51.482;5.702;2023-04-10T09:14:29;14.70;99.90
76787;DHT22;65739;51.482;5.702;2023-04-10T09:17:18;14.70;99.90
76787;DHT22;65739;51.482;5.702;2023-04-10T09:19:46;14.70;99.90
76787;DHT22;65739;51.482;5.702;2023-04-10T09:22:12;14.70;99.90
76787;DHT22;65739;51.482;5.702;2023-04-10T09:24:43;14.70;99.90
76787;DHT22;65739;51.482;5.702;2023-04-10T09:27:09;14.90;99.90
76787;DHT22;65739;51.482;5.702;2023-04-10T09:29:45;15.00;99.90
76787;DHT22;65739;51.482;5.702;2023-04-10T09:32:23;15.00;99.90
76787;DHT22;65739;51.482;5.702;2023-04-10T09:34:59;15.20;99.90
76787;DHT22;65739;51.482;5.702;2023-04-10T09:37:31;15.20;99.90
76787;DHT22;65739;51.482;5.702;2023-04-10T09:39:56;15.00;99.90
76787;DHT22;65739;51.482;5.702;2023-04-10T09:42:35;15.00;99.90
76787;DHT22;65739;51.482;5.702;2023-04-10T09:45:02;14.80;99.90
76787;DHT22;65739;51.482;5.702;2023-04-10T09:47:29;15.10;99.90
76787;DHT22;65739;51.482;5.702;2023-04-10T09:49:56;15.30;99.90
76787;DHT22;65739;51.482;5.702;2023-04-10T09:52:23;15.40;99.90
76787;DHT22;65739;51.482;5.702;2023-04-10T09:54:53;15.20;99.90
76787;DHT22;65739;51.482;5.702;2023-04-10T09:57:20;15.20;99.90
76787;DHT22;65739;51.482;5.702;2023-04-10T09:59:54;15.40;99.90
76787;DHT22;65739;51.482;5.702;2023-04-10T10:02:22;15.40;99.90
76787;DHT22;65739;51.482;5.702;2023-04-10T10:04:48;15.40;99.90
76787;DHT22;65739;51.482;5.702;2023-04-10T10:07:16;15.40;99.90
76787;DHT22;65739;51.482;5.702;2023-04-10T10:09:42;15.50;99.90
76787;DHT22;65739;51.482;5.702;2023-04-10T10:12:10;15.70;99.90
76787;DHT22;65739;51.482;5.702;2023-04-10T10:15:13;15.60;99.90
76787;DHT22;65739;51.482;5.702;2023-04-10T10:17:48;15.60;99.90
76787;DHT22;65739;51.482;5.702;2023-04-10T10:20:17;15.40;99.90
76787;DHT22;65739;51.482;5.702;2023-04-10T10:22:45;15.70;99.90
76787;DHT22;65739;51.482;5.702;2023-04-10T10:25:12;15.80;99.90
76787;DHT22;65739;51.482;5.702;2023-04-10T10:27:39;15.90;99.90
76787;DHT22;65739;51.482;5.702;2023-04-10T10:30:07;16.00;99.90
76787;DHT22;65739;51.482;5.702;2023-04-10T10:32:34;16.40;99.90
76787;DHT22;65739;51.482;5.702;2023-04-10T10:35:00;16.30;99.90
76787;DHT22;65739;51.482;5.702;2023-04-10T10:37:30;16.30;99.90
76787;DHT22;65739;51.482;5.702;2023-04-10T10:40:40;16.40;99.90
76787;DHT22;65739;51.482;5.702;2023-04-10T10:42:49;16.60;99.90
76787;DHT22;65739;51.482;5.702;2023-04-10T10:45:22;16.80;99.90
76787;DHT22;65739;51.482;5.702;2023-04-10T10:47:53;17.10;99.90
76787;DHT22;65739;51.482;5.702;2023-04-10T10:50:19;17.20;99.90
76787;DHT22;65739;51.482;5.702;2023-04-10T10:52:55;17.50;99.90
76787;DHT22;65739;51.482;5.702;2023-04-10T10:58:03;18.10;99.90
76787;DHT22;65739;51.482;5.702;2023-04-10T11:08:40;17.80;99.90
76787;DHT22;65739;51.482;5.702;2023-04-10T11:11:17;17.80;99.90
76787;DHT22;65739;51.482;5.702;2023-04-10T11:16:21;18.10;99.90
76787;DHT22;65739;51.482;5.702;2023-04-10T11:21:16;17.70;99.90
76787;DHT22;65739;51.482;5.702;2023-04-10T11:28:59;18.10;99.90
76787;DHT22;65739;51.482;5.702;2023-04-10T11:31:25;18.20;99.90
76787;DHT22;65739;51.482;5.702;2023-04-10T11:34:02;17.90;99.90
76787;DHT22;65739;51.482;5.702;2023-04-10T11:36:29;18.10;99.90
76787;DHT22;65739;51.482;5.702;2023-04-10T11:38:59;18.00;99.90
76787;DHT22;65739;51.482;5.702;2023-04-10T11:41:33;17.90;99.90
76787;DHT22;65739;51.482;5.702;2023-04-10T11:44:01;18.20;99.90
76787;DHT22;65739;51.482;5.702;2023-04-10T11:46:27;18.40;99.90
76787;DHT22;65739;51.482;5.702;2023-04-10T11:49:03;18.70;99.90
76787;DHT22;65739;51.482;5.702;2023-04-10T11:51:29;18.70;99.90
76787;DHT22;65739;51.482;5.702;2023-04-10T11:54:18;18.70;99.90
76787;DHT22;65739;51.482;5.702;2023-04-10T11:56:55;18.20;99.90
76787;DHT22;65739;51.482;5.702;2023-04-10T11:59:22;18.00;99.90
76787;DHT22;65739;51.482;5.702;2023-04-10T12:01:50;18.30;99.90
76787;DHT22;65739;51.482;5.702;2023-04-10T12:04:19;18.30;99.90
76787;DHT22;65739;51.482;5.702;2023-04-10T12:06:47;18.30;99.90
76787;DHT22;65739;51.482;5.702;2023-04-10T12:09:17;18.00;99.90
76787;DHT22;65739;51.482;5.702;2023-04-10T12:14:33;18.10;99.90
76787;DHT22;65739;51.482;5.702;2023-04-10T12:17:00;18.20;99.90
76787;DHT22;65739;51.482;5.702;2023-04-10T12:19:26;18.10;99.90
76787;DHT22;65739;51.482;5.702;2023-04-10T12:21:52;18.00;99.90
76787;DHT22;65739;51.482;5.702;2023-04-10T12:24:41;18.10;99.90
76787;DHT22;65739;51.482;5.702;2023-04-10T12:27:28;18.30;99.90
76787;DHT22;65739;51.482;5.702;2023-04-10T12:29:55;18.60;99.90
76787;DHT22;65739;51.482;5.702;2023-04-10T12:32:21;18.70;99.90
76787;DHT22;65739;51.482;5.702;2023-04-10T12:34:55;18.70;99.90
76787;DHT22;65739;51.482;5.702;2023-04-10T12:37:22;18.70;99.90
76787;DHT22;65739;51.482;5.702;2023-04-10T12:39:47;19.00;99.90
76787;DHT22;65739;51.482;5.702;2023-04-10T12:42:18;18.90;99.90
76787;DHT22;65739;51.482;5.702;2023-04-10T12:45:00;18.80;99.90
76787;DHT22;65739;51.482;5.702;2023-04-10T12:47:27;19.00;99.90
76787;DHT22;65739;51.482;5.702;2023-04-10T12:50:10;18.70;99.90
76787;DHT22;65739;51.482;5.702;2023-04-10T12:52:37;18.80;99.90
76787;DHT22;65739;51.482;5.702;2023-04-10T12:55:16;19.00;99.90
76787;DHT22;65739;51.482;5.702;2023-04-10T12:57:46;18.90;99.90
76787;DHT22;65739;51.482;5.702;2023-04-10T13:00:14;19.00;99.90
76787;DHT22;65739;51.482;5.702;2023-04-10T13:02:41;18.70;99.90
76787;DHT22;65739;51.482;5.702;2023-04-10T13:05:07;18.60;99.90
76787;DHT22;65739;51.482;5.702;2023-04-10T13:07:33;18.50;99.90
76787;DHT22;65739;51.482;5.702;2023-04-10T13:09:59;18.40;99.90
76787;DHT22;65739;51.482;5.702;2023-04-10T13:12:25;18.10;99.90
76787;DHT22;65739;51.482;5.702;2023-04-10T13:14:52;18.00;99.90
76787;DHT22;65739;51.482;5.702;2023-04-10T13:17:23;18.00;99.90
76787;DHT22;65739;51.482;5.702;2023-04-10T13:19:48;17.80;99.90
76787;DHT22;65739;51.482;5.702;2023-04-10T13:22:14;17.70;99.90
76787;DHT22;65739;51.482;5.702;2023-04-10T13:24:40;17.70;99.90
76787;DHT22;65739;51.482;5.702;2023-04-10T13:27:06;17.70;99.90
76787;DHT22;65739;51.482;5.702;2023-04-10T13:29:34;17.70;99.90
76787;DHT22;65739;51.482;5.702;2023-04-10T13:32:00;17.70;99.90
76787;DHT22;65739;51.482;5.702;2023-04-10T13:34:26;17.70;99.90
76787;DHT22;65739;51.482;5.702;2023-04-10T13:36:52;17.70;99.90
76787;DHT22;65739;51.482;5.702;2023-04-10T13:39:17;17.60;99.90
76787;DHT22;65739;51.482;5.702;2023-04-10T13:41:43;17.70;99.90
76787;DHT22;65739;51.482;5.702;2023-04-10T13:44:08;17.80;99.90
76787;DHT22;65739;51.482;5.702;2023-04-10T13:46:34;17.90;99.90
76787;DHT22;65739;51.482;5.702;2023-04-10T13:49:00;17.90;99.90
76787;DHT22;65739;51.482;5.702;2023-04-10T13:51:25;17.70;99.90
76787;DHT22;65739;51.482;5.702;2023-04-10T13:53:52;17.70;99.90
76787;DHT22;65739;51.482;5.702;2023-04-10T13:56:17;17.70;99.90
76787;DHT22;65739;51.482;5.702;2023-04-10T13:58:45;17.60;99.90
76787;DHT22;65739;51.482;5.702;2023-04-10T14:01:10;17.60;99.90
76787;DHT22;65739;51.482;5.702;2023-04-10T14:03:36;17.70;99.90
76787;DHT22;65739;51.482;5.702;2023-04-10T14:06:02;18.00;99.90
76787;DHT22;65739;51.482;5.702;2023-04-10T14:08:28;18.00;99.90
76787;DHT22;65739;51.482;5.702;2023-04-10T14:10:53;18.30;99.90
76787;DHT22;65739;51.482;5.702;2023-04-10T14:13:19;18.30;99.90
76787;DHT22;65739;51.482;5.702;2023-04-10T14:15:45;18.40;99.90
76787;DHT22;65739;51.482;5.702;2023-04-10T14:18:11;18.20;99.90
76787;DHT22;65739;51.482;5.702;2023-04-10T14:20:38;18.10;99.90
76787;DHT22;65739;51.482;5.702;2023-04-10T14:23:06;18.00;99.90
76787;DHT22;65739;51.482;5.702;2023-04-10T14:25:32;17.80;99.90
76787;DHT22;65739;51.482;5.702;2023-04-10T14:27:57;17.90;99.90
76787;DHT22;65739;51.482;5.702;2023-04-10T14:30:24;17.80;99.90
76787;DHT22;65739;51.482;5.702;2023-04-10T14:32:53;17.80;99.90
76787;DHT22;65739;51.482;5.702;2023-04-10T14:35:20;17.70;99.90
76787;DHT22;65739;51.482;5.702;2023-04-10T14:37:45;17.70;99.90
76787;DHT22;65739;51.482;5.702;2023-04-10T14:40:11;17.70;99.90
76787;DHT22;65739;51.482;5.702;2023-04-10T14:42:36;17.40;99.90
76787;DHT22;65739;51.482;5.702;2023-04-10T14:45:02;17.20;99.90
76787;DHT22;65739;51.482;5.702;2023-04-10T14:47:29;17.10;99.90
76787;DHT22;65739;51.482;5.702;2023-04-10T14:49:55;17.10;99.90
76787;DHT22;65739;51.482;5.702;2023-04-10T14:52:20;16.90;99.90
76787;DHT22;65739;51.482;5.702;2023-04-10T14:54:46;16.80;99.90
76787;DHT22;65739;51.482;5.702;2023-04-10T14:57:11;16.60;99.90
76787;DHT22;65739;51.482;5.702;2023-04-10T14:59:38;16.40;99.90
76787;DHT22;65739;51.482;5.702;2023-04-10T15:02:03;16.20;99.90
76787;DHT22;65739;51.482;5.702;2023-04-10T15:04:29;16.00;99.90
76787;DHT22;65739;51.482;5.702;2023-04-10T15:06:54;15.90;99.90
76787;DHT22;65739;51.482;5.702;2023-04-10T15:09:20;15.80;99.90
76787;DHT22;65739;51.482;5.702;2023-04-10T15:11:45;15.60;99.90
76787;DHT22;65739;51.482;5.702;2023-04-10T15:14:11;15.40;99.90
76787;DHT22;65739;51.482;5.702;2023-04-10T15:16:37;15.30;99.90
76787;DHT22;65739;51.482;5.702;2023-04-10T15:19:02;15.20;99.90
76787;DHT22;65739;51.482;5.702;2023-04-10T15:21:28;15.00;99.90
76787;DHT22;65739;51.482;5.702;2023-04-10T15:23:53;14.90;99.90
76787;DHT22;65739;51.482;5.702;2023-04-10T15:26:19;14.80;99.90
76787;DHT22;65739;51.482;5.702;2023-04-10T15:28:45;14.80;99.90
76787;DHT22;65739;51.482;5.702;2023-04-10T15:31:11;14.80;99.90
76787;DHT22;65739;51.482;5.702;2023-04-10T15:33:36;14.80;99.90
76787;DHT22;65739;51.482;5.702;2023-04-10T15:36:04;14.90;99.90
76787;DHT22;65739;51.482;5.702;2023-04-10T15:38:33;14.90;99.90
76787;DHT22;65739;51.482;5.702;2023-04-10T15:40:58;14.90;99.90
76787;DHT22;65739;51.482;5.702;2023-04-10T15:43:24;14.90;99.90
76787;DHT22;65739;51.482;5.702;2023-04-10T15:45:50;14.90;99.90
76787;DHT22;65739;51.482;5.702;2023-04-10T15:48:15;14.90;99.90
76787;DHT22;65739;51.482;5.702;2023-04-10T15:50:41;15.00;99.90
76787;DHT22;65739;51.482;5.702;2023-04-10T15:53:07;15.00;99.90
76787;DHT22;65739;51.482;5.702;2023-04-10T15:55:34;15.00;99.90
76787;DHT22;65739;51.482;5.702;2023-04-10T15:58:02;15.10;99.90
76787;DHT22;65739;51.482;5.702;2023-04-10T16:00:28;15.10;99.90
76787;DHT22;65739;51.482;5.702;2023-04-10T16:02:53;15.10;99.90
76787;DHT22;65739;51.482;5.702;2023-04-10T16:05:19;15.00;99.90
76787;DHT22;65739;51.482;5.702;2023-04-10T16:07:44;14.90;99.90
76787;DHT22;65739;51.482;5.702;2023-04-10T16:10:10;14.70;99.90